sensor_id;sensor_type;location;lat;lon;timestamp;pressure;altitude;pressure_sealevel;temperature;humidity
7888;BME280;3989;48.810;9.208;2023-04-27T00:02:06;98885.97;;;7.51;100.00
7888;BME280;3989;48.810;9.208;2023-04-27T00:04:33;98916.47;;;7.72;100.00
7888;BME280;3989;48.810;9.208;2023-04-27T00:06:59;98901.06;;;7.76;100.00
7888;BME280;3989;48.810;9.208;2023-04-27T00:09:26;98867.91;;;7.54;100.00
7888;BME280;3989;48.810;9.208;2023-04-27T00:11:54;98897.28;;;7.78;100.00
7888;BME280;3989;48.810;9.208;2023-04-27T00:14:20;98892.78;;;7.79;100.00
7888;BME280;3989;48.810;9.208;2023-04-27T00:16:47;98884.81;;;7.79;100.00
7888;BME280;3989;48.810;9.208;2023-04-27T00:19:13;98847.66;;;7.53;100.00
7888;BME280;3989;48.810;9.208;2023-04-27T00:21:40;98890.44;;;7.76;100.00
7888;BME280;3989;48.810;9.208;2023-04-27T00:24:07;98837.63;;;7.39;100.00
7888;BME280;3989;48.810;9.208;2023-04-27T00:26:33;98873.28;;;7.62;100.00
7888;BME280;3989;48.810;9.208;2023-04-27T00:29:01;98887.44;;;7.71;100.00
7888;BME280;3989;48.810;9.208;2023-04-27T00:31:28;98859.09;;;7.54;100.00
7888;BME280;3989;48.810;9.208;2023-04-27T00:33:54;98851.25;;;7.44;100.00
7888;BME280;3989;48.810;9.208;2023-04-27T00:36:21;98877.25;;;7.66;100.00
7888;BME280;3989;48.810;9.208;2023-04-27T00:38:47;98869.09;;;7.60;100.00
7888;BME280;3989;48.810;9.208;2023-04-27T00:41:14;98858.31;;;7.61;100.00
7888;BME280;3989;48.810;9.208;2023-04-27T00:43:41;98878.31;;;7.73;100.00
7888;BME280;3989;48.810;9.208;2023-04-27T00:46:10;98794.06;;;7.24;100.00
7888;BME280;3989;48.810;9.208;2023-04-27T00:48:38;98874.81;;;7.73;100.00
7888;BME280;3989;48.810;9.208;2023-04-27T00:51:05;98872.34;;;7.71;100.00
7888;BME280;3989;48.810;9.208;2023-04-27T00:53:32;98871.63;;;7.69;100.00
7888;BME280;3989;48.810;9.208;2023-04-27T00:55:59;98871.97;;;7.66;100.00
7888;BME280;3989;48.810;9.208;2023-04-27T00:58:26;98872.28;;;7.63;100.00
7888;BME280;3989;48.810;9.208;2023-04-27T01:00:53;98869.78;;;7.62;100.00
7888;BME280;3989;48.810;9.208;2023-04-27T01:03:22;98874.72;;;7.57;100.00
7888;BME280;3989;48.810;9.208;2023-04-27T01:05:48;98868.88;;;7.53;100.00
7888;BME280;3989;48.810;9.208;2023-04-27T01:08:15;98873.53;;;7.51;100.00
7888;BME280;3989;48.810;9.208;2023-04-27T01:10:41;98871.03;;;7.50;100.00
7888;BME280;3989;48.810;9.208;2023-04-27T01:13:08;98872.88;;;7.49;100.00
7888;BME280;3989;48.810;9.208;2023-04-27T01:15:35;98872.34;;;7.46;100.00
7888;BME280;3989;48.810;9.208;2023-04-27T01:18:01;98868.78;;;7.37;100.00
7888;BME280;3989;48.810;9.208;2023-04-27T01:20:30;98871.31;;;7.38;100.00
7888;BME280;3989;48.810;9.208;2023-04-27T01:22:57;98878.75;;;7.35;100.00
7888;BME280;3989;48.810;9.208;2023-04-27T01:25:25;98873.91;;;7.30;100.00
7888;BME280;3989;48.810;9.208;2023-04-27T01:27:52;98877.88;;;7.26;100.00
7888;BME280;3989;48.810;9.208;2023-04-27T01:30:19;98882.78;;;7.21;100.00
7888;BME280;3989;48.810;9.208;2023-04-27T01:32:46;98872.66;;;7.17;100.00
7888;BME280;3989;48.810;9.208;2023-04-27T01:35:13;98844.25;;;6.92;100.00
7888;BME280;3989;48.810;9.208;2023-04-27T01:37:39;98843.91;;;6.86;100.00
7888;BME280;3989;48.810;9.208;2023-04-27T01:40:07;98878.06;;;7.07;100.00
7888;BME280;3989;48.810;9.208;2023-04-27T01:42:35;98876.53;;;7.05;100.00
7888;BME280;3989;48.810;9.208;2023-04-27T01:45:03;98848.84;;;6.81;100.00
7888;BME280;3989;48.810;9.208;2023-04-27T01:47:29;98871.00;;;6.98;100.00
7888;BME280;3989;48.810;9.208;2023-04-27T01:49:56;98876.63;;;6.95;100.00
7888;BME280;3989;48.810;9.208;2023-04-27T01:52:22;98818.31;;;6.60;100.00
7888;BME280;3989;48.810;9.208;2023-04-27T01:54:49;98876.94;;;6.92;100.00
7888;BME280;3989;48.810;9.208;2023-04-27T01:57:15;98878.91;;;6.90;100.00
7888;BME280;3989;48.810;9.208;2023-04-27T01:59:43;98890.97;;;6.84;100.00
7888;BME280;3989;48.810;9.208;2023-04-27T02:02:10;98859.69;;;6.70;100.00
7888;BME280;3989;48.810;9.208;2023-04-27T02:04:37;98886.69;;;6.92;100.00
7888;BME280;3989;48.810;9.208;2023-04-27T02:07:03;98854.22;;;6.72;100.00
7888;BME280;3989;48.810;9.208;2023-04-27T02:09:30;98857.38;;;6.75;100.00
7888;BME280;3989;48.810;9.208;2023-04-27T02:11:57;98856.03;;;6.71;100.00
7888;BME280;3989;48.810;9.208;2023-04-27T02:14:23;98866.47;;;6.73;100.00
7888;BME280;3989;48.810;9.208;2023-04-27T02:16:52;98848.63;;;6.57;100.00
7888;BME280;3989;48.810;9.208;2023-04-27T02:19:18;98882.19;;;6.84;100.00
7888;BME280;3989;48.810;9.208;2023-04-27T02:21:45;98891.03;;;6.93;100.00
7888;BME280;3989;48.810;9.208;2023-04-27T02:24:11;98899.53;;;6.96;100.00
7888;BME280;3989;48.810;9.208;2023-04-27T02:26:38;98838.00;;;6.57;100.00
7888;BME280;3989;48.810;9.208;2023-04-27T02:29:05;98899.69;;;6.95;100.00
7888;BME280;3989;48.810;9.208;2023-04-27T02:31:31;98855.22;;;6.71;100.00
7888;BME280;3989;48.810;9.208;2023-04-27T02:33:59;98900.34;;;6.97;100.00
7888;BME280;3989;48.810;9.208;2023-04-27T02:36:26;98844.81;;;6.60;100.00
7888;BME280;3989;48.810;9.208;2023-04-27T02:38:52;98853.69;;;6.68;100.00
7888;BME280;3989;48.810;9.208;2023-04-27T02:41:19;98910.66;;;7.00;100.00
7888;BME280;3989;48.810;9.208;2023-04-27T02:43:46;98908.84;;;7.00;100.00
7888;BME280;3989;48.810;9.208;2023-04-27T02:46:12;98904.38;;;7.01;100.00
7888;BME280;3989;48.810;9.208;2023-04-27T02:48:39;98877.53;;;6.86;100.00
7888;BME280;3989;48.810;9.208;2023-04-27T02:51:07;98906.72;;;7.04;100.00
7888;BME280;3989;48.810;9.208;2023-04-27T02:53:33;98833.84;;;6.55;100.00
7888;BME280;3989;48.810;9.208;2023-04-27T02:56:00;98874.66;;;6.79;100.00
7888;BME280;3989;48.810;9.208;2023-04-27T02:58:27;98912.34;;;7.01;100.00
7888;BME280;3989;48.810;9.208;2023-04-27T03:00:53;98921.41;;;6.98;100.00
7888;BME280;3989;48.810;9.208;2023-04-27T03:03:20;98917.47;;;7.02;100.00
7888;BME280;3989;48.810;9.208;2023-04-27T03:05:47;98890.44;;;6.81;100.00
7888;BME280;3989;48.810;9.208;2023-04-27T03:08:15;98918.19;;;7.04;100.00
7888;BME280;3989;48.810;9.208;2023-04-27T03:10:41;98857.47;;;6.66;100.00
7888;BME280;3989;48.810;9.208;2023-04-27T03:13:08;98913.84;;;7.03;100.00
7888;BME280;3989;48.810;9.208;2023-04-27T03:15:34;98914.81;;;7.02;100.00
7888;BME280;3989;48.810;9.208;2023-04-27T03:18:01;98917.78;;;6.99;100.00
7888;BME280;3989;48.810;9.208;2023-04-27T03:20:28;98911.09;;;6.95;100.00
7888;BME280;3989;48.810;9.208;2023-04-27T03:22:54;98918.63;;;7.00;100.00
7888;BME280;3989;48.810;9.208;2023-04-27T03:25:22;98858.47;;;6.65;100.00
7888;BME280;3989;48.810;9.208;2023-04-27T03:27:49;98832.94;;;6.46;100.00
7888;BME280;3989;48.810;9.208;2023-04-27T03:30:15;98879.97;;;6.79;100.00
7888;BME280;3989;48.810;9.208;2023-04-27T03:32:42;98851.94;;;6.59;100.00
7888;BME280;3989;48.810;9.208;2023-04-27T03:35:09;98904.28;;;6.93;100.00
7888;BME280;3989;48.810;9.208;2023-04-27T03:37:35;98834.22;;;6.60;100.00
7888;BME280;3989;48.810;9.208;2023-04-27T03:40:02;98908.16;;;6.98;100.00
7888;BME280;3989;48.810;9.208;2023-04-27T03:42:32;98879.00;;;6.80;100.00
7888;BME280;3989;48.810;9.208;2023-04-27T03:44:59;98899.97;;;6.92;100.00
7888;BME280;3989;48.810;9.208;2023-04-27T03:47:26;98886.66;;;6.83;100.00
7888;BME280;3989;48.810;9.208;2023-04-27T03:49:52;98902.47;;;6.93;100.00
7888;BME280;3989;48.810;9.208;2023-04-27T03:52:19;98915.66;;;7.03;100.00
7888;BME280;3989;48.810;9.208;2023-04-27T03:54:45;98879.44;;;6.76;100.00
7888;BME280;3989;48.810;9.208;2023-04-27T03:57:12;98920.44;;;6.99;100.00
7888;BME280;3989;48.810;9.208;2023-04-27T03:59:40;98920.59;;;6.98;100.00
7888;BME280;3989;48.810;9.208;2023-04-27T04:02:06;98872.25;;;6.68;100.00
7888;BME280;3989;48.810;9.208;2023-04-27T04:04:33;98869.38;;;6.62;100.00
7888;BME280;3989;48.810;9.208;2023-04-27T04:07:00;98917.94;;;6.98;100.00
7888;BME280;3989;48.810;9.208;2023-04-27T04:09:26;98920.59;;;6.98;100.00
7888;BME280;3989;48.810;9.208;2023-04-27T04:11:53;98931.22;;;6.98;100.00
7888;BME280;3989;48.810;9.208;2023-04-27T04:14:19;98894.06;;;6.80;100.00
7888;BME280;3989;48.810;9.208;2023-04-27T04:16:47;98891.88;;;6.75;100.00
7888;BME280;3989;48.810;9.208;2023-04-27T04:19:14;98920.91;;;6.95;100.00
7888;BME280;3989;48.810;9.208;2023-04-27T04:21:41;98923.41;;;6.96;100.00
7888;BME280;3989;48.810;9.208;2023-04-27T04:24:07;98916.59;;;6.94;100.00
7888;BME280;3989;48.810;9.208;2023-04-27T04:26:34;98927.25;;;7.02;100.00
7888;BME280;3989;48.810;9.208;2023-04-27T04:29:01;98924.47;;;7.03;100.00
7888;BME280;3989;48.810;9.208;2023-04-27T04:31:28;98929.47;;;7.06;100.00
7888;BME280;3989;48.810;9.208;2023-04-27T04:33:56;98916.81;;;7.00;100.00
7888;BME280;3989;48.810;9.208;2023-04-27T04:36:22;98932.34;;;7.13;100.00
7888;BME280;3989;48.810;9.208;2023-04-27T04:38:49;98923.19;;;7.07;100.00
7888;BME280;3989;48.810;9.208;2023-04-27T04:41:16;98942.34;;;7.19;100.00
7888;BME280;3989;48.810;9.208;2023-04-27T04:43:43;98904.06;;;7.04;100.00
7888;BME280;3989;48.810;9.208;2023-04-27T04:46:10;98935.78;;;7.31;100.00
7888;BME280;3989;48.810;9.208;2023-04-27T04:48:36;98909.81;;;7.17;100.00
7888;BME280;3989;48.810;9.208;2023-04-27T04:51:05;98910.84;;;7.24;100.00
7888;BME280;3989;48.810;9.208;2023-04-27T04:53:32;98936.59;;;7.49;100.00
7888;BME280;3989;48.810;9.208;2023-04-27T04:56:07;98934.84;;;7.58;100.00
7888;BME280;3989;48.810;9.208;2023-04-27T04:58:34;98937.53;;;7.66;100.00
7888;BME280;3989;48.810;9.208;2023-04-27T05:01:00;98938.25;;;7.76;100.00
7888;BME280;3989;48.810;9.208;2023-04-27T05:03:27;98849.69;;;7.33;100.00
7888;BME280;3989;48.810;9.208;2023-04-27T05:05:53;98936.19;;;7.96;100.00
7888;BME280;3989;48.810;9.208;2023-04-27T05:08:21;98865.66;;;7.67;100.00
7888;BME280;3989;48.810;9.208;2023-04-27T05:10:48;98927.97;;;8.07;100.00
7888;BME280;3989;48.810;9.208;2023-04-27T05:13:16;98936.16;;;8.21;100.00
7888;BME280;3989;48.810;9.208;2023-04-27T05:15:42;98937.75;;;8.32;100.00
7888;BME280;3989;48.810;9.208;2023-04-27T05:18:09;98927.81;;;8.42;100.00
7888;BME280;3989;48.810;9.208;2023-04-27T05:20:36;98934.16;;;8.57;100.00
7888;BME280;3989;48.810;9.208;2023-04-27T05:23:03;98914.00;;;8.47;100.00
7888;BME280;3989;48.810;9.208;2023-04-27T05:25:31;98939.00;;;8.70;100.00
7888;BME280;3989;48.810;9.208;2023-04-27T05:27:58;98911.56;;;8.61;100.00
7888;BME280;3989;48.810;9.208;2023-04-27T05:30:24;98929.22;;;8.86;100.00
7888;BME280;3989;48.810;9.208;2023-04-27T05:32:51;98942.06;;;9.07;100.00
7888;BME280;3989;48.810;9.208;2023-04-27T05:35:17;98946.41;;;9.16;100.00
7888;BME280;3989;48.810;9.208;2023-04-27T05:37:44;98910.47;;;9.04;100.00
7888;BME280;3989;48.810;9.208;2023-04-27T05:40:11;98896.97;;;8.98;100.00
7888;BME280;3989;48.810;9.208;2023-04-27T05:42:41;98917.44;;;9.21;100.00
7888;BME280;3989;48.810;9.208;2023-04-27T05:45:08;98952.22;;;9.52;100.00
7888;BME280;3989;48.810;9.208;2023-04-27T05:47:35;98956.53;;;9.61;100.00
7888;BME280;3989;48.810;9.208;2023-04-27T05:50:01;98945.19;;;9.67;100.00
7888;BME280;3989;48.810;9.208;2023-04-27T05:52:28;98888.63;;;9.41;100.00
7888;BME280;3989;48.810;9.208;2023-04-27T05:54:56;98955.50;;;9.86;100.00
7888;BME280;3989;48.810;9.208;2023-04-27T05:57:23;98957.66;;;9.91;100.00
7888;BME280;3989;48.810;9.208;2023-04-27T05:59:52;98918.03;;;9.80;100.00
7888;BME280;3989;48.810;9.208;2023-04-27T06:02:19;98951.28;;;10.16;100.00
7888;BME280;3989;48.810;9.208;2023-04-27T06:04:45;98948.63;;;10.16;100.00
7888;BME280;3989;48.810;9.208;2023-04-27T06:07:14;98970.41;;;10.28;100.00
7888;BME280;3989;48.810;9.208;2023-04-27T06:09:41;98962.72;;;10.33;100.00
7888;BME280;3989;48.810;9.208;2023-04-27T06:12:07;98967.28;;;10.55;100.00
7888;BME280;3989;48.810;9.208;2023-04-27T06:14:35;98961.25;;;10.61;100.00
7888;BME280;3989;48.810;9.208;2023-04-27T06:17:04;98902.56;;;10.30;100.00
7888;BME280;3989;48.810;9.208;2023-04-27T06:19:30;98979.34;;;10.82;100.00
7888;BME280;3989;48.810;9.208;2023-04-27T06:21:57;98860.25;;;10.19;100.00
7888;BME280;3989;48.810;9.208;2023-04-27T06:24:23;98945.13;;;10.85;100.00
7888;BME280;3989;48.810;9.208;2023-04-27T06:26:50;98967.50;;;11.07;100.00
7888;BME280;3989;48.810;9.208;2023-04-27T06:29:17;98964.16;;;11.28;98.55
7888;BME280;3989;48.810;9.208;2023-04-27T06:31:43;98960.44;;;11.37;98.94
7888;BME280;3989;48.810;9.208;2023-04-27T06:34:12;98943.13;;;11.47;93.41
7888;BME280;3989;48.810;9.208;2023-04-27T06:36:39;98973.19;;;11.72;91.73
7888;BME280;3989;48.810;9.208;2023-04-27T06:39:06;98963.97;;;11.75;92.06
7888;BME280;3989;48.810;9.208;2023-04-27T06:41:32;98964.44;;;11.93;91.40
7888;BME280;3989;48.810;9.208;2023-04-27T06:43:59;98981.47;;;12.15;89.50
7888;BME280;3989;48.810;9.208;2023-04-27T06:46:25;98973.41;;;12.29;84.47
7888;BME280;3989;48.810;9.208;2023-04-27T06:48:52;98857.63;;;11.62;82.71
7888;BME280;3989;48.810;9.208;2023-04-27T06:51:20;98971.31;;;12.39;85.42
7888;BME280;3989;48.810;9.208;2023-04-27T06:53:47;98929.13;;;12.27;80.42
7888;BME280;3989;48.810;9.208;2023-04-27T06:56:13;98981.50;;;12.65;79.52
7888;BME280;3989;48.810;9.208;2023-04-27T06:58:40;98960.94;;;12.51;77.66
7888;BME280;3989;48.810;9.208;2023-04-27T07:01:07;98999.13;;;12.74;79.63
7888;BME280;3989;48.810;9.208;2023-04-27T07:03:34;98992.38;;;12.78;77.53
7888;BME280;3989;48.810;9.208;2023-04-27T07:06:01;98990.25;;;12.88;79.88
7888;BME280;3989;48.810;9.208;2023-04-27T07:08:29;99007.94;;;13.04;76.56
7888;BME280;3989;48.810;9.208;2023-04-27T07:10:55;98995.50;;;13.11;76.42
7888;BME280;3989;48.810;9.208;2023-04-27T07:13:22;98984.47;;;13.21;73.04
7888;BME280;3989;48.810;9.208;2023-04-27T07:15:53;98994.22;;;13.28;73.48
7888;BME280;3989;48.810;9.208;2023-04-27T07:18:21;98989.59;;;13.22;67.91
7888;BME280;3989;48.810;9.208;2023-04-27T07:20:48;98983.94;;;13.10;70.39
7888;BME280;3989;48.810;9.208;2023-04-27T07:23:15;98987.44;;;13.11;69.66
7888;BME280;3989;48.810;9.208;2023-04-27T07:25:43;98986.59;;;12.96;72.26
7888;BME280;3989;48.810;9.208;2023-04-27T07:28:10;98937.69;;;12.51;75.39
7888;BME280;3989;48.810;9.208;2023-04-27T07:30:37;98982.97;;;12.68;76.90
7888;BME280;3989;48.810;9.208;2023-04-27T07:33:04;98982.75;;;12.84;74.13
7888;BME280;3989;48.810;9.208;2023-04-27T07:35:31;98983.56;;;12.99;71.20
7888;BME280;3989;48.810;9.208;2023-04-27T07:37:58;98961.78;;;13.02;70.73
7888;BME280;3989;48.810;9.208;2023-04-27T07:40:25;98944.41;;;12.98;70.54
7888;BME280;3989;48.810;9.208;2023-04-27T07:42:54;98954.78;;;13.22;68.76
7888;BME280;3989;48.810;9.208;2023-04-27T07:45:23;98975.56;;;13.41;68.06
7888;BME280;3989;48.810;9.208;2023-04-27T07:47:56;98955.72;;;13.36;69.11
7888;BME280;3989;48.810;9.208;2023-04-27T07:50:24;98949.41;;;13.43;68.43
7888;BME280;3989;48.810;9.208;2023-04-27T07:52:51;98976.19;;;13.86;67.26
7888;BME280;3989;48.810;9.208;2023-04-27T07:55:18;98936.81;;;13.65;63.45
7888;BME280;3989;48.810;9.208;2023-04-27T07:57:45;98925.25;;;13.64;64.37
7888;BME280;3989;48.810;9.208;2023-04-27T08:00:14;98968.81;;;13.94;65.73
7888;BME280;3989;48.810;9.208;2023-04-27T08:02:40;98869.66;;;13.52;61.82
7888;BME280;3989;48.810;9.208;2023-04-27T08:05:07;98979.53;;;14.29;59.61
7888;BME280;3989;48.810;9.208;2023-04-27T08:07:34;98911.78;;;13.86;60.90
7888;BME280;3989;48.810;9.208;2023-04-27T08:10:01;98959.91;;;14.28;58.89
7888;BME280;3989;48.810;9.208;2023-04-27T08:12:27;98981.63;;;14.27;59.71
7888;BME280;3989;48.810;9.208;2023-04-27T08:14:54;98952.91;;;14.27;59.71
7888;BME280;3989;48.810;9.208;2023-04-27T08:17:22;98862.84;;;13.84;58.69
7888;BME280;3989;48.810;9.208;2023-04-27T08:19:48;98963.69;;;14.68;58.90
7888;BME280;3989;48.810;9.208;2023-04-27T08:22:15;98965.84;;;14.45;55.97
7888;BME280;3989;48.810;9.208;2023-04-27T08:24:42;98941.13;;;14.28;56.86
7888;BME280;3989;48.810;9.208;2023-04-27T08:27:08;98933.16;;;14.35;56.36
7888;BME280;3989;48.810;9.208;2023-04-27T08:29:35;98779.94;;;13.48;55.04
7888;BME280;3989;48.810;9.208;2023-04-27T08:32:02;98836.00;;;14.18;54.09
7888;BME280;3989;48.810;9.208;2023-04-27T08:34:30;98956.97;;;14.98;52.61
7888;BME280;3989;48.810;9.208;2023-04-27T08:36:57;98946.41;;;14.97;52.41
7888;BME280;3989;48.810;9.208;2023-04-27T08:39:24;98941.25;;;14.89;51.71
7888;BME280;3989;48.810;9.208;2023-04-27T08:41:51;98843.53;;;14.36;51.91
7888;BME280;3989;48.810;9.208;2023-04-27T08:44:17;98938.78;;;15.07;50.50
7888;BME280;3989;48.810;9.208;2023-04-27T08:46:44;98937.13;;;15.06;49.55
7888;BME280;3989;48.810;9.208;2023-04-27T08:49:11;98923.66;;;14.99;49.19
7888;BME280;3989;48.810;9.208;2023-04-27T08:51:39;98924.31;;;15.01;49.14
7888;BME280;3989;48.810;9.208;2023-04-27T08:54:06;98932.00;;;15.17;48.58
7888;BME280;3989;48.810;9.208;2023-04-27T08:56:32;98919.81;;;15.35;47.71
7888;BME280;3989;48.810;9.208;2023-04-27T08:59:00;98904.50;;;15.42;47.48
7888;BME280;3989;48.810;9.208;2023-04-27T09:01:28;98931.84;;;15.71;46.61
7888;BME280;3989;48.810;9.208;2023-04-27T09:03:55;98879.91;;;15.51;45.93
7888;BME280;3989;48.810;9.208;2023-04-27T09:06:28;98878.47;;;15.62;45.66
7888;BME280;3989;48.810;9.208;2023-04-27T09:08:57;98941.34;;;16.00;45.67
7888;BME280;3989;48.810;9.208;2023-04-27T09:11:29;98932.00;;;16.03;45.07
7888;BME280;3989;48.810;9.208;2023-04-27T09:13:57;98928.69;;;16.07;44.24
7888;BME280;3989;48.810;9.208;2023-04-27T09:16:25;98933.88;;;16.15;44.10
7888;BME280;3989;48.810;9.208;2023-04-27T09:18:52;98894.72;;;16.06;44.38
7888;BME280;3989;48.810;9.208;2023-04-27T09:21:23;98919.78;;;16.13;42.56
7888;BME280;3989;48.810;9.208;2023-04-27T09:23:50;98947.50;;;16.20;42.70
7888;BME280;3989;48.810;9.208;2023-04-27T09:26:20;98892.91;;;15.74;42.66
7888;BME280;3989;48.810;9.208;2023-04-27T09:28:48;98942.56;;;16.17;42.41
7888;BME280;3989;48.810;9.208;2023-04-27T09:31:16;98946.25;;;16.29;42.16
7888;BME280;3989;48.810;9.208;2023-04-27T09:33:44;98930.50;;;16.26;42.54
7888;BME280;3989;48.810;9.208;2023-04-27T09:36:12;98950.59;;;16.31;42.05
7888;BME280;3989;48.810;9.208;2023-04-27T09:38:39;98939.81;;;16.37;42.02
7888;BME280;3989;48.810;9.208;2023-04-27T09:41:06;98847.19;;;15.74;42.76
7888;BME280;3989;48.810;9.208;2023-04-27T09:43:35;98921.03;;;16.11;42.87
7888;BME280;3989;48.810;9.208;2023-04-27T09:46:03;98801.50;;;15.35;42.96
7888;BME280;3989;48.810;9.208;2023-04-27T09:48:29;98916.69;;;16.03;43.76
7888;BME280;3989;48.810;9.208;2023-04-27T09:50:56;98935.28;;;16.31;44.12
7888;BME280;3989;48.810;9.208;2023-04-27T09:53:27;98931.13;;;16.22;43.24
7888;BME280;3989;48.810;9.208;2023-04-27T09:56:05;98896.66;;;15.86;43.45
7888;BME280;3989;48.810;9.208;2023-04-27T09:58:57;98933.22;;;16.26;43.33
7888;BME280;3989;48.810;9.208;2023-04-27T10:01:29;98934.22;;;16.25;44.00
7888;BME280;3989;48.810;9.208;2023-04-27T10:04:10;98907.56;;;16.11;44.01
7888;BME280;3989;48.810;9.208;2023-04-27T10:06:59;98923.44;;;16.32;43.34
7888;BME280;3989;48.810;9.208;2023-04-27T10:09:26;98916.47;;;16.18;43.67
7888;BME280;3989;48.810;9.208;2023-04-27T10:11:56;98930.75;;;16.18;43.69
7888;BME280;3989;48.810;9.208;2023-04-27T10:14:23;98910.41;;;16.22;44.00
7888;BME280;3989;48.810;9.208;2023-04-27T10:16:51;98891.78;;;16.27;44.11
7888;BME280;3989;48.810;9.208;2023-04-27T10:19:19;98917.41;;;16.56;44.05
7888;BME280;3989;48.810;9.208;2023-04-27T10:21:53;98941.19;;;16.66;42.71
7888;BME280;3989;48.810;9.208;2023-04-27T10:24:30;98936.31;;;16.30;43.70
7888;BME280;3989;48.810;9.208;2023-04-27T10:27:00;98933.97;;;16.47;44.25
7888;BME280;3989;48.810;9.208;2023-04-27T10:29:35;98860.97;;;16.10;43.82
7888;BME280;3989;48.810;9.208;2023-04-27T10:32:05;98953.63;;;16.67;43.88
7888;BME280;3989;48.810;9.208;2023-04-27T10:34:33;98950.03;;;16.86;43.68
7888;BME280;3989;48.810;9.208;2023-04-27T10:37:04;98833.97;;;16.30;42.28
7888;BME280;3989;48.810;9.208;2023-04-27T10:39:34;98831.06;;;16.32;43.10
7888;BME280;3989;48.810;9.208;2023-04-27T10:42:01;98836.97;;;16.53;43.14
7888;BME280;3989;48.810;9.208;2023-04-27T10:44:30;98915.16;;;17.22;42.80
7888;BME280;3989;48.810;9.208;2023-04-27T10:46:59;98898.41;;;17.14;42.76
7888;BME280;3989;48.810;9.208;2023-04-27T10:49:27;98911.28;;;17.12;42.13
7888;BME280;3989;48.810;9.208;2023-04-27T10:51:56;98826.75;;;16.68;42.20
7888;BME280;3989;48.810;9.208;2023-04-27T10:54:25;98863.69;;;16.99;42.64
7888;BME280;3989;48.810;9.208;2023-04-27T10:56:52;98913.13;;;17.43;42.91
7888;BME280;3989;48.810;9.208;2023-04-27T10:59:19;98909.47;;;17.62;41.79
7888;BME280;3989;48.810;9.208;2023-04-27T11:01:47;98926.13;;;17.52;41.26
7888;BME280;3989;48.810;9.208;2023-04-27T11:04:16;98824.81;;;16.82;41.87
7888;BME280;3989;48.810;9.208;2023-04-27T11:06:44;98895.53;;;17.40;41.89
7888;BME280;3989;48.810;9.208;2023-04-27T11:09:12;98885.44;;;17.60;41.15
7888;BME280;3989;48.810;9.208;2023-04-27T11:11:43;98912.41;;;18.03;41.26
7888;BME280;3989;48.810;9.208;2023-04-27T11:14:13;98898.69;;;18.23;40.89
7888;BME280;3989;48.810;9.208;2023-04-27T11:16:45;98867.56;;;18.02;40.39
7888;BME280;3989;48.810;9.208;2023-04-27T11:19:11;98807.00;;;17.55;40.27
7888;BME280;3989;48.810;9.208;2023-04-27T11:21:39;98777.72;;;17.34;40.27
7888;BME280;3989;48.810;9.208;2023-04-27T11:24:07;98853.22;;;17.83;40.57
7888;BME280;3989;48.810;9.208;2023-04-27T11:26:34;98904.78;;;18.18;40.28
7888;BME280;3989;48.810;9.208;2023-04-27T11:29:04;98852.56;;;17.88;40.41
7888;BME280;3989;48.810;9.208;2023-04-27T11:31:39;98894.63;;;18.32;40.41
7888;BME280;3989;48.810;9.208;2023-04-27T11:34:06;98887.66;;;18.43;39.89
7888;BME280;3989;48.810;9.208;2023-04-27T11:36:33;98888.38;;;18.38;39.87
7888;BME280;3989;48.810;9.208;2023-04-27T11:39:02;98761.88;;;17.80;39.89
7888;BME280;3989;48.810;9.208;2023-04-27T11:41:34;98879.44;;;18.56;39.16
7888;BME280;3989;48.810;9.208;2023-04-27T11:44:05;98902.13;;;18.84;38.62
7888;BME280;3989;48.810;9.208;2023-04-27T11:46:33;98869.94;;;18.65;39.45
7888;BME280;3989;48.810;9.208;2023-04-27T11:49:02;98904.47;;;18.81;39.64
7888;BME280;3989;48.810;9.208;2023-04-27T11:51:30;98906.34;;;19.10;39.31
7888;BME280;3989;48.810;9.208;2023-04-27T11:54:02;98684.44;;;18.11;39.30
7888;BME280;3989;48.810;9.208;2023-04-27T11:56:37;98892.38;;;19.66;38.43
7888;BME280;3989;48.810;9.208;2023-04-27T11:59:05;98892.13;;;19.56;38.52
7888;BME280;3989;48.810;9.208;2023-04-27T12:01:42;98890.00;;;19.17;38.34
7888;BME280;3989;48.810;9.208;2023-04-27T12:04:09;98795.69;;;18.49;38.78
7888;BME280;3989;48.810;9.208;2023-04-27T12:06:36;98893.09;;;18.91;39.30
7888;BME280;3989;48.810;9.208;2023-04-27T12:09:04;98789.16;;;18.27;38.80
7888;BME280;3989;48.810;9.208;2023-04-27T12:11:31;98874.31;;;18.66;38.75
7888;BME280;3989;48.810;9.208;2023-04-27T12:13:58;98875.97;;;18.67;39.21
7888;BME280;3989;48.810;9.208;2023-04-27T12:16:25;98810.22;;;18.36;39.16
7888;BME280;3989;48.810;9.208;2023-04-27T12:18:52;98881.53;;;18.54;38.99
7888;BME280;3989;48.810;9.208;2023-04-27T12:21:19;98848.50;;;18.52;39.28
7888;BME280;3989;48.810;9.208;2023-04-27T12:23:45;98828.53;;;18.53;39.28
7888;BME280;3989;48.810;9.208;2023-04-27T12:26:13;98866.50;;;18.87;39.12
7888;BME280;3989;48.810;9.208;2023-04-27T12:28:40;98790.41;;;18.61;39.24
7888;BME280;3989;48.810;9.208;2023-04-27T12:31:06;98825.53;;;19.14;38.78
7888;BME280;3989;48.810;9.208;2023-04-27T12:33:33;98662.09;;;18.33;38.06
7888;BME280;3989;48.810;9.208;2023-04-27T12:35:59;98771.44;;;19.14;38.11
7888;BME280;3989;48.810;9.208;2023-04-27T12:38:26;98863.28;;;19.85;38.20
7888;BME280;3989;48.810;9.208;2023-04-27T12:40:53;98828.00;;;20.20;38.18
7888;BME280;3989;48.810;9.208;2023-04-27T12:43:21;98853.13;;;20.67;37.04
7888;BME280;3989;48.810;9.208;2023-04-27T12:45:48;98850.22;;;21.13;36.30
7888;BME280;3989;48.810;9.208;2023-04-27T12:48:15;98857.38;;;21.36;35.91
7888;BME280;3989;48.810;9.208;2023-04-27T12:50:42;98854.50;;;21.59;35.58
7888;BME280;3989;48.810;9.208;2023-04-27T12:53:08;98801.81;;;21.22;35.06
7888;BME280;3989;48.810;9.208;2023-04-27T12:55:35;98844.06;;;21.34;35.62
7888;BME280;3989;48.810;9.208;2023-04-27T12:58:02;98851.31;;;21.29;35.36
7888;BME280;3989;48.810;9.208;2023-04-27T13:00:30;98832.22;;;21.40;36.08
7888;BME280;3989;48.810;9.208;2023-04-27T13:02:58;98844.75;;;21.58;35.27
7888;BME280;3989;48.810;9.208;2023-04-27T13:05:25;98844.19;;;21.94;34.98
7888;BME280;3989;48.810;9.208;2023-04-27T13:07:51;98848.13;;;22.04;34.46
7888;BME280;3989;48.810;9.208;2023-04-27T13:10:18;98775.22;;;21.40;34.90
7888;BME280;3989;48.810;9.208;2023-04-27T13:12:44;98771.09;;;21.55;34.77
7888;BME280;3989;48.810;9.208;2023-04-27T13:15:11;98840.06;;;22.09;34.33
7888;BME280;3989;48.810;9.208;2023-04-27T13:17:39;98839.00;;;22.10;34.57
7888;BME280;3989;48.810;9.208;2023-04-27T13:20:07;98825.94;;;21.73;34.82
7888;BME280;3989;48.810;9.208;2023-04-27T13:22:34;98832.03;;;21.97;34.83
7888;BME280;3989;48.810;9.208;2023-04-27T13:25:00;98836.00;;;21.89;34.60